createdAt,value
2018-08-24T00:01:07.754Z,19.00
2018-08-24T00:03:36.722Z,18.90
2018-08-24T00:06:05.942Z,18.80
2018-08-24T00:08:34.979Z,18.90
2018-08-24T00:11:03.993Z,18.90
2018-08-24T00:13:33.232Z,18.90
2018-08-24T00:16:02.277Z,18.90
2018-08-24T00:18:31.249Z,18.80
2018-08-24T00:21:00.478Z,18.80
2018-08-24T00:23:29.503Z,18.80
2018-08-24T00:25:58.608Z,18.80
2018-08-24T00:28:27.763Z,18.80
2018-08-24T00:30:55.890Z,18.80
2018-08-24T00:33:24.919Z,18.80
2018-08-24T00:35:53.930Z,18.80
2018-08-24T00:38:23.029Z,18.80
2018-08-24T00:40:56.567Z,18.80
2018-08-24T00:43:26.389Z,18.80
2018-08-24T00:45:55.770Z,18.90
2018-08-24T00:48:24.928Z,18.90
2018-08-24T00:50:54.044Z,18.90
2018-08-24T00:53:22.143Z,18.80
2018-08-24T00:55:50.213Z,18.60
2018-08-24T00:58:18.385Z,18.40
2018-08-24T01:00:46.619Z,18.20
2018-08-24T01:03:15.040Z,18.20
2018-08-24T01:05:43.085Z,18.10
2018-08-24T01:08:11.156Z,18.20
2018-08-24T01:10:39.305Z,18.20
2018-08-24T01:13:12.567Z,18.30
2018-08-24T01:15:54.096Z,18.30
2018-08-24T01:18:24.459Z,18.40
2018-08-24T01:20:54.599Z,18.30
2018-08-24T01:23:26.786Z,18.40
2018-08-24T01:25:55.940Z,18.30
2018-08-24T01:28:24.318Z,18.30
2018-08-24T01:30:52.555Z,18.20
2018-08-24T01:33:20.639Z,18.20
2018-08-24T01:35:49.009Z,18.20
2018-08-24T01:38:17.136Z,18.20
2018-08-24T01:40:45.354Z,18.20
2018-08-24T01:43:13.481Z,18.20
2018-08-24T01:45:42.714Z,18.30
2018-08-24T01:48:10.832Z,18.30
2018-08-24T01:50:40.108Z,18.20
2018-08-24T01:53:08.275Z,18.30
2018-08-24T01:55:36.342Z,18.30
2018-08-24T01:58:05.414Z,18.30
2018-08-24T02:00:33.623Z,18.30
2018-08-24T02:03:01.873Z,18.00
2018-08-24T02:05:29.950Z,17.70
2018-08-24T02:07:58.058Z,17.60
2018-08-24T02:10:27.982Z,17.60
2018-08-24T02:13:01.596Z,17.60
2018-08-24T02:15:29.611Z,17.60
2018-08-24T02:18:02.895Z,17.60
2018-08-24T02:20:36.276Z,17.60
2018-08-24T02:23:09.633Z,17.70
2018-08-24T02:25:38.359Z,17.80
2018-08-24T02:28:06.825Z,18.00
2018-08-24T02:30:35.068Z,18.00
2018-08-24T02:33:03.342Z,18.00
2018-08-24T02:35:31.516Z,18.00
2018-08-24T02:37:59.594Z,18.00
2018-08-24T02:40:27.711Z,17.80
2018-08-24T02:42:55.935Z,17.70
2018-08-24T02:45:24.310Z,17.70
2018-08-24T02:47:52.373Z,17.60
2018-08-24T02:50:20.559Z,17.60
2018-08-24T02:52:48.782Z,17.60
2018-08-24T02:55:17.195Z,17.50
2018-08-24T02:57:45.288Z,17.40
2018-08-24T03:00:13.452Z,17.30
2018-08-24T03:02:41.538Z,17.30
2018-08-24T03:05:09.838Z,17.30
2018-08-24T03:07:38.044Z,17.30
2018-08-24T03:10:06.145Z,17.40
2018-08-24T03:12:34.217Z,17.40
2018-08-24T03:15:02.395Z,17.40
2018-08-24T03:17:35.619Z,17.40
2018-08-24T03:20:03.867Z,17.50
2018-08-24T03:22:31.929Z,17.40
2018-08-24T03:24:59.994Z,17.30
2018-08-24T03:27:28.020Z,17.20
2018-08-24T03:29:56.139Z,17.20
2018-08-24T03:32:24.230Z,17.30
2018-08-24T03:34:52.432Z,17.30
2018-08-24T03:37:20.538Z,17.30
2018-08-24T03:39:48.608Z,17.30
2018-08-24T03:42:17.489Z,17.20
2018-08-24T03:44:45.693Z,17.20
2018-08-24T03:47:13.761Z,17.10
2018-08-24T03:49:41.935Z,17.00
2018-08-24T03:52:09.992Z,17.00
2018-08-24T03:54:38.076Z,16.90
2018-08-24T03:57:06.352Z,17.00
2018-08-24T03:59:34.518Z,17.00
2018-08-24T04:02:02.659Z,17.00
2018-08-24T04:04:30.769Z,16.90
2018-08-24T04:06:58.799Z,16.90
2018-08-24T04:09:27.031Z,16.80
2018-08-24T04:11:55.084Z,16.80
2018-08-24T04:14:23.179Z,16.80
2018-08-24T04:16:56.551Z,16.80
2018-08-24T04:19:26.807Z,16.70
2018-08-24T04:21:55.459Z,16.70
2018-08-24T04:24:23.703Z,16.80
2018-08-24T04:26:52.318Z,16.80
2018-08-24T04:29:20.421Z,16.90
2018-08-24T04:31:48.762Z,16.90
2018-08-24T04:34:16.828Z,17.00
2018-08-24T04:36:44.909Z,16.80
2018-08-24T04:39:13.590Z,16.80
2018-08-24T04:41:42.457Z,16.70
2018-08-24T04:44:11.115Z,16.60
2018-08-24T04:46:39.310Z,16.70
2018-08-24T04:49:07.888Z,16.70
2018-08-24T04:51:36.098Z,16.70
2018-08-24T04:54:04.186Z,16.80
2018-08-24T04:56:32.382Z,16.80
2018-08-24T04:59:01.180Z,16.80
2018-08-24T05:01:29.401Z,16.80
2018-08-24T05:03:58.315Z,16.70
2018-08-24T05:06:26.464Z,16.70
2018-08-24T05:08:54.637Z,16.70
2018-08-24T05:11:22.703Z,16.70
2018-08-24T05:13:50.771Z,16.90
2018-08-24T05:16:19.063Z,16.90
2018-08-24T05:18:47.239Z,17.00
2018-08-24T05:21:15.418Z,17.00
2018-08-24T05:23:43.681Z,17.00
2018-08-24T05:26:11.764Z,17.00
2018-08-24T05:28:40.134Z,16.90
2018-08-24T05:31:08.300Z,16.90
2018-08-24T05:33:36.355Z,17.00
2018-08-24T05:36:04.544Z,17.00
2018-08-24T05:38:32.721Z,17.00
2018-08-24T05:41:00.788Z,17.00
2018-08-24T05:43:28.894Z,17.10
2018-08-24T05:45:57.136Z,17.10
2018-08-24T05:48:25.170Z,17.10
2018-08-24T05:50:53.288Z,17.10
2018-08-24T05:53:21.452Z,17.20
2018-08-24T05:55:49.696Z,17.30
2018-08-24T05:58:17.783Z,17.50
2018-08-24T06:00:46.659Z,17.60
2018-08-24T06:03:14.860Z,17.60
2018-08-24T06:05:48.289Z,17.70
2018-08-24T06:08:16.538Z,17.80
2018-08-24T06:10:44.603Z,17.90
2018-08-24T06:13:16.464Z,17.90
2018-08-24T06:15:45.152Z,18.00
2018-08-24T06:18:13.308Z,18.10
2018-08-24T06:20:41.700Z,18.20
2018-08-24T06:23:09.746Z,18.30
2018-08-24T06:25:38.694Z,18.30
2018-08-24T06:28:06.811Z,18.40
2018-08-24T06:30:35.048Z,18.40
2018-08-24T06:33:03.281Z,18.40
2018-08-24T06:35:31.351Z,18.40
2018-08-24T06:37:59.405Z,18.50
2018-08-24T06:40:27.501Z,18.60
2018-08-24T06:42:55.967Z,18.60
2018-08-24T06:45:24.077Z,18.70
2018-08-24T06:47:52.225Z,18.70
2018-08-24T06:50:20.405Z,18.70
2018-08-24T06:52:48.455Z,18.70
2018-08-24T06:55:16.746Z,18.60
2018-08-24T06:57:44.856Z,18.70
2018-08-24T07:00:12.988Z,18.70
2018-08-24T07:02:41.049Z,18.90
2018-08-24T07:05:09.533Z,18.90
2018-08-24T07:07:37.644Z,19.00
2018-08-24T07:10:06.077Z,19.10
2018-08-24T07:12:34.271Z,19.20
2018-08-24T07:15:03.577Z,19.30
2018-08-24T07:17:37.737Z,19.50
2018-08-24T07:20:07.131Z,19.60
2018-08-24T07:22:37.212Z,19.80
2018-08-24T07:25:06.572Z,20.00
2018-08-24T07:27:35.854Z,20.10
2018-08-24T07:30:05.142Z,20.20
2018-08-24T07:32:34.432Z,20.30
2018-08-24T07:35:03.710Z,20.40
2018-08-24T07:37:33.005Z,20.40
2018-08-24T07:40:02.135Z,20.50
2018-08-24T07:42:31.328Z,20.50
2018-08-24T07:45:00.532Z,20.50
2018-08-24T07:47:29.716Z,20.60
2018-08-24T07:49:58.825Z,20.70
2018-08-24T07:52:27.902Z,20.80
2018-08-24T07:54:57.112Z,20.90
2018-08-24T07:57:26.218Z,21.00
2018-08-24T07:59:55.315Z,21.10
2018-08-24T08:02:28.538Z,21.10
2018-08-24T08:04:57.750Z,21.30
2018-08-24T08:07:26.709Z,21.50
2018-08-24T08:09:55.992Z,21.70
2018-08-24T08:12:25.289Z,21.90
2018-08-24T08:14:59.550Z,21.90
2018-08-24T08:17:28.736Z,21.80
2018-08-24T08:19:57.896Z,21.90
2018-08-24T08:22:26.988Z,22.00
2018-08-24T08:24:56.105Z,22.00
2018-08-24T08:27:25.300Z,22.00
2018-08-24T08:29:59.450Z,22.00
2018-08-24T08:32:29.211Z,22.00
2018-08-24T08:34:58.375Z,22.00
2018-08-24T08:37:27.576Z,22.00
2018-08-24T08:40:02.993Z,22.10
2018-08-24T08:42:32.025Z,22.10
2018-08-24T08:45:01.162Z,22.20
2018-08-24T08:47:30.220Z,22.40
2018-08-24T08:49:59.484Z,22.50
2018-08-24T08:52:28.678Z,22.60
2018-08-24T08:54:57.924Z,22.70
2018-08-24T08:57:27.132Z,22.70
2018-08-24T08:59:56.314Z,22.80
2018-08-24T09:02:25.423Z,22.90
2018-08-24T09:04:54.500Z,22.90
2018-08-24T09:07:23.609Z,23.00
2018-08-24T09:09:52.608Z,23.00
2018-08-24T09:12:21.669Z,23.20
2018-08-24T09:14:50.868Z,23.30
2018-08-24T09:17:25.178Z,23.40
2018-08-24T09:19:59.275Z,23.60
2018-08-24T09:23:35.329Z,23.70
2018-08-24T09:26:09.704Z,23.80
2018-08-24T09:28:40.044Z,23.90
2018-08-24T09:31:31.282Z,24.00
2018-08-24T09:34:00.565Z,24.10
2018-08-24T09:36:29.620Z,24.10
2018-08-24T09:39:01.656Z,24.10
2018-08-24T09:41:30.673Z,24.20
2018-08-24T09:44:00.661Z,24.30
2018-08-24T09:46:34.997Z,24.40
2018-08-24T09:49:09.181Z,24.50
2018-08-24T09:51:38.304Z,24.70
2018-08-24T09:54:08.590Z,24.90
2018-08-24T09:56:38.811Z,24.90
2018-08-24T09:59:07.848Z,25.00
2018-08-24T10:01:42.001Z,25.10
2018-08-24T10:04:16.049Z,25.30
2018-08-24T10:06:50.221Z,25.20
2018-08-24T10:09:19.312Z,25.20
2018-08-24T10:11:48.604Z,25.20
2018-08-24T10:14:17.577Z,24.80
2018-08-24T10:16:46.663Z,24.50
2018-08-24T10:19:16.309Z,24.30
2018-08-24T10:21:45.489Z,24.20
2018-08-24T10:24:14.562Z,24.20
2018-08-24T10:26:43.678Z,24.10
2018-08-24T10:29:12.940Z,24.10
2018-08-24T10:31:41.974Z,24.00
2018-08-24T10:34:11.173Z,23.80
2018-08-24T10:36:40.283Z,23.50
2018-08-24T10:39:10.989Z,23.30
2018-08-24T10:41:40.281Z,22.80
2018-08-24T10:44:09.491Z,22.30
2018-08-24T10:46:38.577Z,22.10
2018-08-24T10:49:07.705Z,21.80
2018-08-24T10:51:37.086Z,21.50
2018-08-24T10:54:06.287Z,21.40
2018-08-24T10:56:35.280Z,21.30
2018-08-24T10:59:04.351Z,21.30
2018-08-24T11:01:33.585Z,21.40
2018-08-24T11:04:02.872Z,21.30
2018-08-24T11:06:32.041Z,21.30
2018-08-24T11:09:01.244Z,21.40
2018-08-24T11:11:31.062Z,21.60
2018-08-24T11:14:00.317Z,21.80
2018-08-24T11:16:29.491Z,21.90
2018-08-24T11:18:58.649Z,21.90
2018-08-24T11:21:27.651Z,21.80
2018-08-24T11:23:56.773Z,21.90
2018-08-24T11:26:25.884Z,22.00
2018-08-24T11:28:55.535Z,22.10
2018-08-24T11:31:24.646Z,22.10
2018-08-24T11:33:53.803Z,22.20
2018-08-24T11:36:22.956Z,22.20
2018-08-24T11:38:51.981Z,22.10
2018-08-24T11:41:21.040Z,22.10
2018-08-24T11:43:50.130Z,22.20
2018-08-24T11:46:19.136Z,22.20
2018-08-24T11:48:48.239Z,22.20
2018-08-24T11:51:17.345Z,22.30
2018-08-24T11:53:46.490Z,22.30
2018-08-24T11:56:15.611Z,22.30
2018-08-24T11:58:44.780Z,22.30
2018-08-24T12:01:14.044Z,22.30
2018-08-24T12:03:43.200Z,22.20
2018-08-24T12:06:12.282Z,22.10
2018-08-24T12:08:41.360Z,22.10
2018-08-24T12:11:10.595Z,22.10
2018-08-24T12:13:39.712Z,22.10
2018-08-24T12:16:08.806Z,22.10
2018-08-24T12:18:38.041Z,22.20
2018-08-24T12:21:07.255Z,22.20
2018-08-24T12:23:36.554Z,22.10
2018-08-24T12:26:06.170Z,22.00
2018-08-24T12:28:35.299Z,22.00
2018-08-24T12:31:04.719Z,21.90
2018-08-24T12:33:33.972Z,21.80
2018-08-24T12:36:03.185Z,21.80
2018-08-24T12:38:32.463Z,21.90
2018-08-24T12:41:01.643Z,21.80
2018-08-24T12:43:30.804Z,21.80
2018-08-24T12:46:00.076Z,21.80
2018-08-24T12:48:29.249Z,21.80
2018-08-24T12:50:58.447Z,21.80
2018-08-24T12:53:27.543Z,21.60
2018-08-24T12:55:56.657Z,21.50
2018-08-24T12:58:26.003Z,21.40
2018-08-24T13:00:55.061Z,21.40
2018-08-24T13:03:24.173Z,21.30
2018-08-24T13:05:53.367Z,21.30
2018-08-24T13:08:22.626Z,21.20
2018-08-24T13:10:51.715Z,21.20
2018-08-24T13:13:20.918Z,21.10
2018-08-24T13:15:49.919Z,21.20
2018-08-24T13:18:19.006Z,21.20
2018-08-24T13:20:48.109Z,21.20
2018-08-24T13:23:17.308Z,21.20
2018-08-24T13:25:46.434Z,21.20
2018-08-24T13:28:15.606Z,21.30
2018-08-24T13:30:44.797Z,21.30
2018-08-24T13:33:13.881Z,21.50
2018-08-24T13:35:42.859Z,21.50
2018-08-24T13:38:12.071Z,21.40
2018-08-24T13:40:41.293Z,21.40
2018-08-24T13:43:10.851Z,21.40
2018-08-24T13:45:39.980Z,21.40
2018-08-24T13:48:09.059Z,21.40
2018-08-24T13:50:38.168Z,21.40
2018-08-24T13:53:07.413Z,21.50
2018-08-24T13:55:36.675Z,21.50
2018-08-24T13:58:05.977Z,21.60
2018-08-24T14:00:35.099Z,21.60
2018-08-24T14:03:04.452Z,21.60
2018-08-24T14:05:33.660Z,21.50
2018-08-24T14:08:02.722Z,21.40
2018-08-24T14:10:31.871Z,21.50
2018-08-24T14:13:01.040Z,21.60
2018-08-24T14:15:30.230Z,21.60
2018-08-24T14:17:59.333Z,21.60
2018-08-24T14:20:28.585Z,21.60
2018-08-24T14:22:57.690Z,21.60
2018-08-24T14:25:26.754Z,21.60
2018-08-24T14:27:55.904Z,21.60
2018-08-24T14:30:25.028Z,21.70
2018-08-24T14:32:54.300Z,21.60
2018-08-24T14:35:23.467Z,21.50
2018-08-24T14:37:52.609Z,21.50
2018-08-24T14:40:21.985Z,21.60
2018-08-24T14:42:51.423Z,21.60
2018-08-24T14:45:20.688Z,21.50
2018-08-24T14:47:50.529Z,21.50
2018-08-24T14:50:19.540Z,21.50
2018-08-24T14:52:48.714Z,21.50
2018-08-24T14:55:17.902Z,21.50
2018-08-24T14:57:46.990Z,21.40
2018-08-24T15:00:16.194Z,21.50
2018-08-24T15:02:45.314Z,21.50
2018-08-24T15:05:14.509Z,21.40
2018-08-24T15:07:43.721Z,21.40
2018-08-24T15:10:12.976Z,21.40
2018-08-24T15:12:42.154Z,21.40
2018-08-24T15:15:11.368Z,21.30
2018-08-24T15:17:40.655Z,21.30
2018-08-24T15:20:09.989Z,21.20
2018-08-24T15:22:39.325Z,21.20
2018-08-24T15:25:08.462Z,21.20
2018-08-24T15:27:37.432Z,21.20
2018-08-24T15:30:07.079Z,21.10
2018-08-24T15:32:36.184Z,21.10
2018-08-24T15:35:05.463Z,21.10
2018-08-24T15:37:35.485Z,21.10
2018-08-24T15:40:04.785Z,21.10
2018-08-24T15:42:33.861Z,21.10
2018-08-24T15:45:02.905Z,21.00
2018-08-24T15:47:31.978Z,21.00
2018-08-24T15:50:00.979Z,21.00
2018-08-24T15:52:30.598Z,20.90
2018-08-24T15:54:59.634Z,21.10
2018-08-24T15:57:28.740Z,21.00
2018-08-24T15:59:57.954Z,20.90
2018-08-24T16:02:27.123Z,20.90
2018-08-24T16:04:56.351Z,20.80
2018-08-24T16:07:25.750Z,20.80
2018-08-24T16:09:54.940Z,20.80
2018-08-24T16:12:24.063Z,20.80
2018-08-24T16:14:53.149Z,20.80
2018-08-24T16:17:22.252Z,20.80
2018-08-24T16:19:51.400Z,20.80
2018-08-24T16:22:20.511Z,20.80
2018-08-24T16:24:49.607Z,20.60
2018-08-24T16:27:22.374Z,20.50
2018-08-24T16:29:51.023Z,20.30
2018-08-24T16:32:20.147Z,20.20
2018-08-24T16:34:49.292Z,20.20
2018-08-24T16:37:18.356Z,20.20
2018-08-24T16:39:48.105Z,20.20
2018-08-24T16:42:17.370Z,20.10
2018-08-24T16:44:47.069Z,20.20
2018-08-24T16:47:16.184Z,20.20
2018-08-24T16:49:45.248Z,20.20
2018-08-24T16:52:14.296Z,20.20
2018-08-24T16:54:43.369Z,20.10
2018-08-24T16:57:11.457Z,20.00
2018-08-24T16:59:39.790Z,19.90
2018-08-24T17:02:08.117Z,19.80
2018-08-24T17:04:36.313Z,19.70
2018-08-24T17:07:04.520Z,19.50
2018-08-24T17:09:32.761Z,19.50
2018-08-24T17:12:00.797Z,19.40
2018-08-24T17:14:28.995Z,19.40
2018-08-24T17:16:57.249Z,19.30
2018-08-24T17:19:25.443Z,19.30
2018-08-24T17:21:53.616Z,19.20
2018-08-24T17:24:21.696Z,19.10
2018-08-24T17:26:49.766Z,19.20
2018-08-24T17:29:17.933Z,19.20
2018-08-24T17:31:46.244Z,19.30
2018-08-24T17:34:14.379Z,19.40
2018-08-24T17:36:42.574Z,19.50
2018-08-24T17:39:12.129Z,19.50
2018-08-24T17:41:40.323Z,19.50
2018-08-24T17:44:08.755Z,19.60
2018-08-24T17:46:37.055Z,19.50
2018-08-24T17:49:05.811Z,19.50
2018-08-24T17:51:34.056Z,19.60
2018-08-24T17:54:02.167Z,19.60
2018-08-24T17:56:30.396Z,19.60
2018-08-24T17:58:58.467Z,19.70
2018-08-24T18:01:26.537Z,19.70
2018-08-24T18:03:54.719Z,19.70
2018-08-24T18:06:22.905Z,19.70
2018-08-24T18:08:50.954Z,19.60
2018-08-24T18:11:19.134Z,19.60
2018-08-24T18:13:47.309Z,19.60
2018-08-24T18:16:15.422Z,19.60
2018-08-24T18:18:43.686Z,19.60
2018-08-24T18:21:11.725Z,19.60
2018-08-24T18:23:39.964Z,19.60
2018-08-24T18:26:08.359Z,19.50
2018-08-24T18:28:36.431Z,19.40
2018-08-24T18:31:04.555Z,19.40
2018-08-24T18:33:32.694Z,19.40
2018-08-24T18:36:00.931Z,19.30
2018-08-24T18:38:29.139Z,19.30
2018-08-24T18:40:57.273Z,19.30
2018-08-24T18:43:25.482Z,19.40
2018-08-24T18:45:53.553Z,19.30
2018-08-24T18:48:21.614Z,19.40
2018-08-24T18:50:49.726Z,19.40
2018-08-24T18:53:17.767Z,19.50
2018-08-24T18:55:45.955Z,19.40
2018-08-24T18:58:14.105Z,19.40
2018-08-24T19:00:42.285Z,19.40
2018-08-24T19:03:10.326Z,19.40
2018-08-24T19:05:38.534Z,19.40
2018-08-24T19:08:11.415Z,19.40
2018-08-24T19:10:44.713Z,19.40
2018-08-24T19:13:14.497Z,19.40
2018-08-24T19:15:42.799Z,19.40
2018-08-24T19:18:16.030Z,19.40
2018-08-24T19:20:49.672Z,19.30
2018-08-24T19:23:17.869Z,19.40
2018-08-24T19:25:45.945Z,19.30
2018-08-24T19:28:19.384Z,19.30
2018-08-24T19:30:47.511Z,19.30
2018-08-24T19:33:15.765Z,19.30
2018-08-24T19:35:43.930Z,19.30
2018-08-24T19:38:12.112Z,19.30
2018-08-24T19:40:45.401Z,19.30
2018-08-24T19:43:13.475Z,19.20
2018-08-24T19:45:41.720Z,19.10
2018-08-24T19:48:15.488Z,19.10
2018-08-24T19:50:43.623Z,19.00
2018-08-24T19:53:11.913Z,19.00
2018-08-24T19:55:40.098Z,19.00
2018-08-24T19:58:13.484Z,18.90
2018-08-24T20:00:41.599Z,18.80
2018-08-24T20:03:09.832Z,18.80
2018-08-24T20:05:37.898Z,18.70
2018-08-24T20:08:11.499Z,18.80
2018-08-24T20:10:39.703Z,18.80
2018-08-24T20:13:07.931Z,18.80
2018-08-24T20:15:41.551Z,18.80
2018-08-24T20:18:09.660Z,18.90
2018-08-24T20:20:37.895Z,18.90
2018-08-24T20:23:06.098Z,18.90
2018-08-24T20:25:34.241Z,19.00
2018-08-24T20:28:02.384Z,19.00
2018-08-24T20:30:30.495Z,19.00
2018-08-24T20:32:58.762Z,19.00
2018-08-24T20:35:26.835Z,19.10
2018-08-24T20:37:54.958Z,19.10
2018-08-24T20:40:23.234Z,19.10
2018-08-24T20:42:51.352Z,19.10
2018-08-24T20:45:19.538Z,19.10
2018-08-24T20:47:47.677Z,19.10
2018-08-24T20:50:15.733Z,19.10
2018-08-24T20:52:43.952Z,19.10
2018-08-24T20:55:12.049Z,19.10
2018-08-24T20:57:40.060Z,19.00
2018-08-24T21:00:08.156Z,19.00
2018-08-24T21:02:36.296Z,19.10
2018-08-24T21:05:04.605Z,19.00
2018-08-24T21:07:32.853Z,19.00
2018-08-24T21:10:00.917Z,19.00
2018-08-24T21:12:28.976Z,19.00
2018-08-24T21:14:57.215Z,19.00
2018-08-24T21:17:25.216Z,19.10
2018-08-24T21:19:53.183Z,19.10
2018-08-24T21:22:21.112Z,19.20
2018-08-24T21:24:49.278Z,19.20
2018-08-24T21:27:17.445Z,19.10
2018-08-24T21:29:45.492Z,19.20
2018-08-24T21:32:13.550Z,19.20
2018-08-24T21:34:41.710Z,19.10
2018-08-24T21:37:09.937Z,19.10
2018-08-24T21:39:37.967Z,19.10
2018-08-24T21:42:06.193Z,19.10
2018-08-24T21:44:34.352Z,19.10
2018-08-24T21:47:02.510Z,19.00
2018-08-24T21:49:30.698Z,18.80
2018-08-24T21:51:58.974Z,18.80
2018-08-24T21:54:27.280Z,18.70
2018-08-24T21:56:55.404Z,18.60
2018-08-24T21:59:23.494Z,18.50
2018-08-24T22:01:51.769Z,18.40
2018-08-24T22:04:19.873Z,18.30
2018-08-24T22:06:48.035Z,18.30
2018-08-24T22:09:16.092Z,18.40
2018-08-24T22:11:44.151Z,18.40
2018-08-24T22:14:12.203Z,18.40
2018-08-24T22:16:40.383Z,18.40
2018-08-24T22:19:08.481Z,18.40
2018-08-24T22:21:36.638Z,18.40
2018-08-24T22:24:04.797Z,18.50
2018-08-24T22:26:32.990Z,18.50
2018-08-24T22:29:01.164Z,18.50
2018-08-24T22:31:29.239Z,18.50
2018-08-24T22:33:57.407Z,18.50
2018-08-24T22:36:25.457Z,18.50
2018-08-24T22:38:53.593Z,18.50
2018-08-24T22:41:21.779Z,18.50
2018-08-24T22:43:50.101Z,18.40
2018-08-24T22:46:18.275Z,18.40
2018-08-24T22:48:46.919Z,18.40
2018-08-24T22:51:15.130Z,18.40
2018-08-24T22:53:43.302Z,18.40
2018-08-24T22:56:11.488Z,18.40
2018-08-24T22:58:39.649Z,18.40
2018-08-24T23:01:07.719Z,18.40
2018-08-24T23:03:35.924Z,18.30
2018-08-24T23:06:04.135Z,18.30
2018-08-24T23:08:32.213Z,18.30
2018-08-24T23:11:00.517Z,18.30
2018-08-24T23:13:28.714Z,18.30
2018-08-24T23:15:56.930Z,18.30
2018-08-24T23:18:25.141Z,18.30
2018-08-24T23:20:53.320Z,18.30
2018-08-24T23:23:21.475Z,18.40
2018-08-24T23:25:49.558Z,18.30
2018-08-24T23:28:17.631Z,18.30
2018-08-24T23:30:45.797Z,18.30
2018-08-24T23:33:13.873Z,18.20
2018-08-24T23:35:42.016Z,18.20
2018-08-24T23:38:10.163Z,18.10
2018-08-24T23:40:38.275Z,18.10
2018-08-24T23:43:06.356Z,18.20
2018-08-24T23:45:34.633Z,18.20
2018-08-24T23:48:02.739Z,18.20
2018-08-24T23:50:31.043Z,18.20
2018-08-24T23:52:59.159Z,18.20
2018-08-24T23:55:27.427Z,18.20
2018-08-24T23:57:55.732Z,18.20
